sensor_id;sensor_type;location;lat;lon;timestamp;pressure;altitude;pressure_sealevel;temperature;humidity
45467;BME280;31212;49.734;8.490;2023-03-04T00:01:44;101313.59;;;-1.26;85.50
45467;BME280;31212;49.734;8.490;2023-03-04T00:04:10;101319.75;;;-1.36;85.69
45467;BME280;31212;49.734;8.490;2023-03-04T00:06:37;101328.94;;;-1.38;85.93
45467;BME280;31212;49.734;8.490;2023-03-04T00:09:03;101337.06;;;-1.44;85.93
45467;BME280;31212;49.734;8.490;2023-03-04T00:11:30;101346.06;;;-1.49;86.54
45467;BME280;31212;49.734;8.490;2023-03-04T00:13:57;101352.06;;;-1.48;86.78
45467;BME280;31212;49.734;8.490;2023-03-04T00:16:25;101360.38;;;-1.51;87.10
45467;BME280;31212;49.734;8.490;2023-03-04T00:18:52;101357.69;;;-1.53;87.30
45467;BME280;31212;49.734;8.490;2023-03-04T00:21:19;101365.56;;;-1.49;87.41
45467;BME280;31212;49.734;8.490;2023-03-04T00:23:46;101370.44;;;-1.53;87.24
45467;BME280;31212;49.734;8.490;2023-03-04T00:26:12;101370.69;;;-1.61;88.16
45467;BME280;31212;49.734;8.490;2023-03-04T00:28:41;101369.59;;;-1.65;88.17
45467;BME280;31212;49.734;8.490;2023-03-04T00:31:08;101369.09;;;-1.73;87.74
45467;BME280;31212;49.734;8.490;2023-03-04T00:33:36;101368.19;;;-1.73;88.13
45467;BME280;31212;49.734;8.490;2023-03-04T00:36:05;101368.47;;;-1.82;88.10
45467;BME280;31212;49.734;8.490;2023-03-04T00:38:31;101379.97;;;-1.75;88.28
45467;BME280;31212;49.734;8.490;2023-03-04T00:40:58;101375.63;;;-1.76;88.72
45467;BME280;31212;49.734;8.490;2023-03-04T00:43:24;101379.72;;;-1.78;88.70
45467;BME280;31212;49.734;8.490;2023-03-04T00:45:51;101374.19;;;-1.73;88.77
45467;BME280;31212;49.734;8.490;2023-03-04T00:48:17;101382.56;;;-1.62;88.57
45467;BME280;31212;49.734;8.490;2023-03-04T00:50:45;101375.38;;;-1.67;88.72
45467;BME280;31212;49.734;8.490;2023-03-04T00:53:14;101372.94;;;-1.66;88.71
45467;BME280;31212;49.734;8.490;2023-03-04T00:55:40;101372.25;;;-1.63;88.51
45467;BME280;31212;49.734;8.490;2023-03-04T00:58:07;101365.31;;;-1.66;88.76
45467;BME280;31212;49.734;8.490;2023-03-04T01:00:33;101373.63;;;-1.68;88.90
45467;BME280;31212;49.734;8.490;2023-03-04T01:03:00;101364.88;;;-1.72;89.37
45467;BME280;31212;49.734;8.490;2023-03-04T01:05:26;101370.06;;;-1.71;89.22
45467;BME280;31212;49.734;8.490;2023-03-04T01:07:54;101371.06;;;-1.68;89.63
45467;BME280;31212;49.734;8.490;2023-03-04T01:10:20;101368.41;;;-1.70;89.54
45467;BME280;31212;49.734;8.490;2023-03-04T01:12:47;101377.91;;;-1.67;89.97
45467;BME280;31212;49.734;8.490;2023-03-04T01:15:13;101368.94;;;-1.62;89.87
45467;BME280;31212;49.734;8.490;2023-03-04T01:17:40;101363.63;;;-1.65;89.64
45467;BME280;31212;49.734;8.490;2023-03-04T01:20:08;101370.16;;;-1.69;89.81
45467;BME280;31212;49.734;8.490;2023-03-04T01:22:35;101360.47;;;-1.75;90.30
45467;BME280;31212;49.734;8.490;2023-03-04T01:25:03;101364.88;;;-1.72;89.84
45467;BME280;31212;49.734;8.490;2023-03-04T01:27:31;101359.03;;;-1.71;89.74
45467;BME280;31212;49.734;8.490;2023-03-04T01:29:57;101350.19;;;-1.76;89.31
45467;BME280;31212;49.734;8.490;2023-03-04T01:32:24;101340.50;;;-1.94;89.51
45467;BME280;31212;49.734;8.490;2023-03-04T01:34:50;101340.19;;;-1.98;89.06
45467;BME280;31212;49.734;8.490;2023-03-04T01:37:17;101332.13;;;-2.05;89.06
45467;BME280;31212;49.734;8.490;2023-03-04T01:39:45;101332.59;;;-2.10;89.45
45467;BME280;31212;49.734;8.490;2023-03-04T01:42:17;101335.63;;;-2.16;89.51
45467;BME280;31212;49.734;8.490;2023-03-04T01:44:45;101333.50;;;-2.22;89.54
45467;BME280;31212;49.734;8.490;2023-03-04T01:47:13;101329.88;;;-2.25;89.30
45467;BME280;31212;49.734;8.490;2023-03-04T01:49:39;101325.47;;;-2.28;90.03
45467;BME280;31212;49.734;8.490;2023-03-04T01:52:09;101332.09;;;-2.30;89.93
45467;BME280;31212;49.734;8.490;2023-03-04T01:54:37;101318.06;;;-2.37;89.15
45467;BME280;31212;49.734;8.490;2023-03-04T01:57:08;101313.00;;;-2.48;89.19
45467;BME280;31212;49.734;8.490;2023-03-04T01:59:42;101312.69;;;-2.53;89.25
45467;BME280;31212;49.734;8.490;2023-03-04T02:02:08;101309.84;;;-2.58;89.42
45467;BME280;31212;49.734;8.490;2023-03-04T02:04:35;101303.06;;;-2.57;89.59
45467;BME280;31212;49.734;8.490;2023-03-04T02:07:03;101301.66;;;-2.54;89.41
45467;BME280;31212;49.734;8.490;2023-03-04T02:09:30;101296.56;;;-2.54;88.63
45467;BME280;31212;49.734;8.490;2023-03-04T02:11:57;101282.53;;;-2.60;88.97
45467;BME280;31212;49.734;8.490;2023-03-04T02:14:24;101274.09;;;-2.59;89.11
45467;BME280;31212;49.734;8.490;2023-03-04T02:16:52;101271.38;;;-2.74;88.92
45467;BME280;31212;49.734;8.490;2023-03-04T02:19:27;101268.63;;;-2.77;88.28
45467;BME280;31212;49.734;8.490;2023-03-04T02:21:56;101284.53;;;-2.80;89.11
45467;BME280;31212;49.734;8.490;2023-03-04T02:24:26;101274.16;;;-2.83;88.79
45467;BME280;31212;49.734;8.490;2023-03-04T02:26:55;101282.75;;;-2.81;89.48
45467;BME280;31212;49.734;8.490;2023-03-04T02:29:22;101276.81;;;-2.81;88.86
45467;BME280;31212;49.734;8.490;2023-03-04T02:31:50;101274.38;;;-2.80;89.28
45467;BME280;31212;49.734;8.490;2023-03-04T02:34:20;101271.16;;;-2.89;89.49
45467;BME280;31212;49.734;8.490;2023-03-04T02:36:49;101267.41;;;-2.94;88.92
45467;BME280;31212;49.734;8.490;2023-03-04T02:39:22;101269.75;;;-2.97;89.48
45467;BME280;31212;49.734;8.490;2023-03-04T02:41:52;101277.47;;;-2.96;89.42
45467;BME280;31212;49.734;8.490;2023-03-04T02:44:23;101277.06;;;-2.90;89.33
45467;BME280;31212;49.734;8.490;2023-03-04T02:46:51;101275.28;;;-3.03;89.84
45467;BME280;31212;49.734;8.490;2023-03-04T02:49:19;101287.66;;;-3.08;89.74
45467;BME280;31212;49.734;8.490;2023-03-04T02:51:45;101281.91;;;-3.29;89.62
45467;BME280;31212;49.734;8.490;2023-03-04T02:54:15;101277.56;;;-3.42;89.25
45467;BME280;31212;49.734;8.490;2023-03-04T02:56:45;101274.69;;;-3.46;89.29
45467;BME280;31212;49.734;8.490;2023-03-04T02:59:13;101271.28;;;-3.47;89.51
45467;BME280;31212;49.734;8.490;2023-03-04T03:01:41;101271.41;;;-3.45;89.19
45467;BME280;31212;49.734;8.490;2023-03-04T03:04:08;101272.72;;;-3.39;89.45
45467;BME280;31212;49.734;8.490;2023-03-04T03:06:34;101273.81;;;-3.47;89.10
45467;BME280;31212;49.734;8.490;2023-03-04T03:09:02;101278.03;;;-3.35;89.19
45467;BME280;31212;49.734;8.490;2023-03-04T03:11:28;101276.03;;;-3.40;89.41
45467;BME280;31212;49.734;8.490;2023-03-04T03:13:56;101274.91;;;-3.43;90.15
45467;BME280;31212;49.734;8.490;2023-03-04T03:16:23;101279.53;;;-3.38;88.99
45467;BME280;31212;49.734;8.490;2023-03-04T03:18:51;101277.16;;;-3.36;89.80
45467;BME280;31212;49.734;8.490;2023-03-04T03:21:19;101275.47;;;-3.35;89.54
45467;BME280;31212;49.734;8.490;2023-03-04T03:23:45;101271.84;;;-3.27;88.85
45467;BME280;31212;49.734;8.490;2023-03-04T03:26:12;101261.78;;;-3.26;88.79
45467;BME280;31212;49.734;8.490;2023-03-04T03:28:39;101263.56;;;-3.36;88.92
45467;BME280;31212;49.734;8.490;2023-03-04T03:31:05;101270.72;;;-3.31;89.31
45467;BME280;31212;49.734;8.490;2023-03-04T03:33:32;101278.16;;;-3.22;89.24
45467;BME280;31212;49.734;8.490;2023-03-04T03:36:00;101274.59;;;-3.24;89.75
45467;BME280;31212;49.734;8.490;2023-03-04T03:38:27;101271.41;;;-3.22;89.65
45467;BME280;31212;49.734;8.490;2023-03-04T03:40:53;101284.84;;;-3.23;89.65
45467;BME280;31212;49.734;8.490;2023-03-04T03:43:20;101286.19;;;-3.16;90.39
45467;BME280;31212;49.734;8.490;2023-03-04T03:45:46;101279.25;;;-3.18;90.26
45467;BME280;31212;49.734;8.490;2023-03-04T03:48:13;101275.06;;;-3.18;90.22
45467;BME280;31212;49.734;8.490;2023-03-04T03:50:39;101270.19;;;-3.27;90.25
45467;BME280;31212;49.734;8.490;2023-03-04T03:53:07;101268.31;;;-3.29;89.76
45467;BME280;31212;49.734;8.490;2023-03-04T03:55:34;101257.16;;;-3.43;89.55
45467;BME280;31212;49.734;8.490;2023-03-04T03:58:00;101257.59;;;-3.49;89.37
45467;BME280;31212;49.734;8.490;2023-03-04T04:00:27;101254.59;;;-3.55;89.18
45467;BME280;31212;49.734;8.490;2023-03-04T04:02:54;101248.16;;;-3.62;88.95
45467;BME280;31212;49.734;8.490;2023-03-04T04:05:21;101251.63;;;-3.49;88.77
45467;BME280;31212;49.734;8.490;2023-03-04T04:07:48;101248.66;;;-3.44;89.03
45467;BME280;31212;49.734;8.490;2023-03-04T04:10:16;101238.16;;;-3.36;88.25
45467;BME280;31212;49.734;8.490;2023-03-04T04:12:43;101245.25;;;-3.21;88.79
45467;BME280;31212;49.734;8.490;2023-03-04T04:15:10;101246.22;;;-3.07;88.50
45467;BME280;31212;49.734;8.490;2023-03-04T04:17:37;101241.03;;;-2.96;87.86
45467;BME280;31212;49.734;8.490;2023-03-04T04:20:06;101248.28;;;-2.77;87.74
45467;BME280;31212;49.734;8.490;2023-03-04T04:22:32;101232.19;;;-2.53;87.79
45467;BME280;31212;49.734;8.490;2023-03-04T04:24:59;101222.38;;;-2.48;87.76
45467;BME280;31212;49.734;8.490;2023-03-04T04:27:27;101220.97;;;-2.31;87.58
45467;BME280;31212;49.734;8.490;2023-03-04T04:29:53;101217.06;;;-2.26;87.06
45467;BME280;31212;49.734;8.490;2023-03-04T04:32:20;101211.38;;;-2.10;87.26
45467;BME280;31212;49.734;8.490;2023-03-04T04:34:46;101213.72;;;-2.13;86.91
45467;BME280;31212;49.734;8.490;2023-03-04T04:37:13;101221.06;;;-2.04;87.06
45467;BME280;31212;49.734;8.490;2023-03-04T04:39:39;101214.72;;;-1.97;86.79
45467;BME280;31212;49.734;8.490;2023-03-04T04:42:06;101218.56;;;-1.91;86.94
45467;BME280;31212;49.734;8.490;2023-03-04T04:44:33;101225.03;;;-1.82;86.75
45467;BME280;31212;49.734;8.490;2023-03-04T04:47:00;101213.97;;;-1.83;86.65
45467;BME280;31212;49.734;8.490;2023-03-04T04:49:27;101202.41;;;-1.91;85.84
45467;BME280;31212;49.734;8.490;2023-03-04T04:51:53;101202.81;;;-1.85;86.03
45467;BME280;31212;49.734;8.490;2023-03-04T04:54:19;101206.75;;;-1.77;85.82
45467;BME280;31212;49.734;8.490;2023-03-04T04:56:46;101202.53;;;-1.76;85.78
45467;BME280;31212;49.734;8.490;2023-03-04T04:59:12;101213.81;;;-1.73;85.81
45467;BME280;31212;49.734;8.490;2023-03-04T05:01:40;101209.00;;;-1.68;86.09
45467;BME280;31212;49.734;8.490;2023-03-04T05:04:07;101207.16;;;-1.71;85.83
45467;BME280;31212;49.734;8.490;2023-03-04T05:06:33;101204.34;;;-1.62;85.58
45467;BME280;31212;49.734;8.490;2023-03-04T05:09:00;101205.41;;;-1.58;85.58
45467;BME280;31212;49.734;8.490;2023-03-04T05:11:27;101203.94;;;-1.55;85.77
45467;BME280;31212;49.734;8.490;2023-03-04T05:13:53;101206.78;;;-1.50;85.78
45467;BME280;31212;49.734;8.490;2023-03-04T05:16:20;101206.91;;;-1.48;85.83
45467;BME280;31212;49.734;8.490;2023-03-04T05:18:47;101212.19;;;-1.45;86.33
45467;BME280;31212;49.734;8.490;2023-03-04T05:21:14;101228.84;;;-1.37;86.28
45467;BME280;31212;49.734;8.490;2023-03-04T05:23:42;101231.47;;;-1.22;86.35
45467;BME280;31212;49.734;8.490;2023-03-04T05:26:13;101199.91;;;-1.24;85.56
45467;BME280;31212;49.734;8.490;2023-03-04T05:28:40;101196.69;;;-1.35;85.58
45467;BME280;31212;49.734;8.490;2023-03-04T05:31:06;101194.25;;;-1.33;85.55
45467;BME280;31212;49.734;8.490;2023-03-04T05:33:33;101183.25;;;-1.32;85.52
45467;BME280;31212;49.734;8.490;2023-03-04T05:36:04;101173.47;;;-1.40;85.21
45467;BME280;31212;49.734;8.490;2023-03-04T05:38:31;101176.22;;;-1.50;84.85
45467;BME280;31212;49.734;8.490;2023-03-04T05:40:59;101175.16;;;-1.54;85.35
45467;BME280;31212;49.734;8.490;2023-03-04T05:43:27;101167.63;;;-1.52;85.13
45467;BME280;31212;49.734;8.490;2023-03-04T05:45:54;101187.59;;;-1.45;85.12
45467;BME280;31212;49.734;8.490;2023-03-04T05:48:21;101187.09;;;-1.53;85.59
45467;BME280;31212;49.734;8.490;2023-03-04T05:50:52;101190.03;;;-1.46;85.23
45467;BME280;31212;49.734;8.490;2023-03-04T05:53:20;101199.34;;;-1.47;85.37
45467;BME280;31212;49.734;8.490;2023-03-04T05:55:47;101206.31;;;-1.44;85.38
45467;BME280;31212;49.734;8.490;2023-03-04T05:58:14;101208.28;;;-1.40;86.03
45467;BME280;31212;49.734;8.490;2023-03-04T06:00:41;101217.06;;;-1.35;85.90
45467;BME280;31212;49.734;8.490;2023-03-04T06:03:13;101214.50;;;-1.35;86.39
45467;BME280;31212;49.734;8.490;2023-03-04T06:05:39;101234.91;;;-1.35;86.62
45467;BME280;31212;49.734;8.490;2023-03-04T06:08:06;101231.97;;;-1.28;86.79
45467;BME280;31212;49.734;8.490;2023-03-04T06:10:34;101239.53;;;-1.29;86.57
45467;BME280;31212;49.734;8.490;2023-03-04T06:13:00;101256.88;;;-1.24;87.04
45467;BME280;31212;49.734;8.490;2023-03-04T06:15:27;101256.09;;;-1.09;86.87
45467;BME280;31212;49.734;8.490;2023-03-04T06:17:53;101256.97;;;-1.09;87.08
45467;BME280;31212;49.734;8.490;2023-03-04T06:20:20;101268.25;;;-1.05;86.83
45467;BME280;31212;49.734;8.490;2023-03-04T06:22:46;101265.00;;;-1.03;87.20
45467;BME280;31212;49.734;8.490;2023-03-04T06:25:13;101255.97;;;-0.97;87.03
45467;BME280;31212;49.734;8.490;2023-03-04T06:27:41;101256.97;;;-0.95;87.03
45467;BME280;31212;49.734;8.490;2023-03-04T06:30:08;101264.41;;;-0.98;86.63
45467;BME280;31212;49.734;8.490;2023-03-04T06:32:35;101260.47;;;-0.93;86.72
45467;BME280;31212;49.734;8.490;2023-03-04T06:35:01;101269.13;;;-0.91;86.61
45467;BME280;31212;49.734;8.490;2023-03-04T06:37:28;101266.25;;;-0.82;86.73
45467;BME280;31212;49.734;8.490;2023-03-04T06:39:54;101264.97;;;-0.76;86.57
45467;BME280;31212;49.734;8.490;2023-03-04T06:42:21;101260.78;;;-0.75;86.29
45467;BME280;31212;49.734;8.490;2023-03-04T06:44:49;101260.88;;;-0.74;86.33
45467;BME280;31212;49.734;8.490;2023-03-04T06:47:16;101268.50;;;-0.74;86.31
45467;BME280;31212;49.734;8.490;2023-03-04T06:49:43;101263.41;;;-0.74;86.28
45467;BME280;31212;49.734;8.490;2023-03-04T06:52:09;101268.88;;;-0.68;86.19
45467;BME280;31212;49.734;8.490;2023-03-04T06:54:37;101264.06;;;-0.63;86.12
45467;BME280;31212;49.734;8.490;2023-03-04T06:57:03;101278.09;;;-0.56;86.25
45467;BME280;31212;49.734;8.490;2023-03-04T06:59:30;101277.31;;;-0.55;86.25
45467;BME280;31212;49.734;8.490;2023-03-04T07:01:58;101279.94;;;-0.54;86.23
45467;BME280;31212;49.734;8.490;2023-03-04T07:04:24;101279.34;;;-0.49;86.41
45467;BME280;31212;49.734;8.490;2023-03-04T07:06:51;101279.34;;;-0.49;86.23
45467;BME280;31212;49.734;8.490;2023-03-04T07:09:17;101278.75;;;-0.45;86.23
45467;BME280;31212;49.734;8.490;2023-03-04T07:11:44;101281.00;;;-0.50;85.97
45467;BME280;31212;49.734;8.490;2023-03-04T07:14:10;101285.81;;;-0.41;86.31
45467;BME280;31212;49.734;8.490;2023-03-04T07:16:37;101280.19;;;-0.36;85.87
45467;BME280;31212;49.734;8.490;2023-03-04T07:19:05;101279.31;;;-0.36;85.93
45467;BME280;31212;49.734;8.490;2023-03-04T07:21:31;101289.72;;;-0.33;85.92
45467;BME280;31212;49.734;8.490;2023-03-04T07:23:58;101290.03;;;-0.42;85.80
45467;BME280;31212;49.734;8.490;2023-03-04T07:26:24;101280.19;;;-0.36;85.93
45467;BME280;31212;49.734;8.490;2023-03-04T07:28:51;101298.44;;;-0.29;86.22
45467;BME280;31212;49.734;8.490;2023-03-04T07:31:21;101289.59;;;-0.21;85.83
45467;BME280;31212;49.734;8.490;2023-03-04T07:33:48;101296.03;;;-0.13;85.99
45467;BME280;31212;49.734;8.490;2023-03-04T07:36:16;101304.16;;;-0.05;85.57
45467;BME280;31212;49.734;8.490;2023-03-04T07:38:44;101301.53;;;-0.07;85.48
45467;BME280;31212;49.734;8.490;2023-03-04T07:41:11;101302.31;;;-0.08;85.66
45467;BME280;31212;49.734;8.490;2023-03-04T07:43:38;101298.72;;;0.04;85.50
45467;BME280;31212;49.734;8.490;2023-03-04T07:46:04;101291.84;;;0.03;85.24
45467;BME280;31212;49.734;8.490;2023-03-04T07:48:31;101291.97;;;0.04;85.32
45467;BME280;31212;49.734;8.490;2023-03-04T07:51:06;101295.03;;;0.13;85.38
45467;BME280;31212;49.734;8.490;2023-03-04T07:53:35;101288.91;;;0.25;85.20
45467;BME280;31212;49.734;8.490;2023-03-04T07:56:03;101284.06;;;0.29;84.74
45467;BME280;31212;49.734;8.490;2023-03-04T07:58:30;101271.22;;;0.28;84.33
45467;BME280;31212;49.734;8.490;2023-03-04T08:00:57;101269.81;;;0.33;84.36
45467;BME280;31212;49.734;8.490;2023-03-04T08:03:24;101276.25;;;0.41;84.36
45467;BME280;31212;49.734;8.490;2023-03-04T08:05:51;101266.47;;;0.49;83.93
45467;BME280;31212;49.734;8.490;2023-03-04T08:08:17;101271.06;;;0.55;83.78
45467;BME280;31212;49.734;8.490;2023-03-04T08:10:45;101260.47;;;0.63;83.65
45467;BME280;31212;49.734;8.490;2023-03-04T08:13:12;101253.59;;;0.77;83.20
45467;BME280;31212;49.734;8.490;2023-03-04T08:15:40;101243.63;;;0.82;82.90
45467;BME280;31212;49.734;8.490;2023-03-04T08:18:07;101239.09;;;0.93;82.75
45467;BME280;31212;49.734;8.490;2023-03-04T08:20:33;101222.81;;;0.91;82.19
45467;BME280;31212;49.734;8.490;2023-03-04T08:23:00;101223.31;;;1.00;82.55
45467;BME280;31212;49.734;8.490;2023-03-04T08:25:26;101222.16;;;1.10;82.06
45467;BME280;31212;49.734;8.490;2023-03-04T08:27:54;101217.78;;;1.24;82.09
45467;BME280;31212;49.734;8.490;2023-03-04T08:30:21;101188.44;;;1.17;81.25
45467;BME280;31212;49.734;8.490;2023-03-04T08:32:47;101181.31;;;1.28;80.80
45467;BME280;31212;49.734;8.490;2023-03-04T08:35:14;101178.78;;;1.28;80.58
45467;BME280;31212;49.734;8.490;2023-03-04T08:37:40;101193.91;;;1.40;80.85
45467;BME280;31212;49.734;8.490;2023-03-04T08:40:08;101184.22;;;1.50;80.26
45467;BME280;31212;49.734;8.490;2023-03-04T08:42:35;101166.25;;;1.49;79.83
45467;BME280;31212;49.734;8.490;2023-03-04T08:45:03;101158.47;;;1.47;79.77
45467;BME280;31212;49.734;8.490;2023-03-04T08:47:30;101165.19;;;1.62;79.58
45467;BME280;31212;49.734;8.490;2023-03-04T08:49:56;101158.53;;;1.65;79.59
45467;BME280;31212;49.734;8.490;2023-03-04T08:52:24;101162.31;;;1.72;79.36
45467;BME280;31212;49.734;8.490;2023-03-04T08:54:50;101156.84;;;1.82;79.17
45467;BME280;31212;49.734;8.490;2023-03-04T08:57:17;101137.72;;;1.92;78.82
45467;BME280;31212;49.734;8.490;2023-03-04T08:59:43;101121.47;;;1.92;78.39
45467;BME280;31212;49.734;8.490;2023-03-04T09:02:11;101128.25;;;1.91;78.69
45467;BME280;31212;49.734;8.490;2023-03-04T09:04:37;101120.66;;;1.93;78.38
45467;BME280;31212;49.734;8.490;2023-03-04T09:07:04;101106.25;;;1.95;77.91
45467;BME280;31212;49.734;8.490;2023-03-04T09:09:30;101100.63;;;2.02;77.99
45467;BME280;31212;49.734;8.490;2023-03-04T09:11:57;101121.63;;;2.13;77.78
45467;BME280;31212;49.734;8.490;2023-03-04T09:14:23;101114.19;;;2.17;77.93
45467;BME280;31212;49.734;8.490;2023-03-04T09:16:50;101110.53;;;2.30;77.45
45467;BME280;31212;49.734;8.490;2023-03-04T09:19:18;101067.28;;;2.37;76.61
45467;BME280;31212;49.734;8.490;2023-03-04T09:21:44;101060.31;;;2.34;76.81
45467;BME280;31212;49.734;8.490;2023-03-04T09:24:11;101079.84;;;2.50;77.02
45467;BME280;31212;49.734;8.490;2023-03-04T09:26:37;101069.50;;;2.66;76.41
45467;BME280;31212;49.734;8.490;2023-03-04T09:29:04;101050.28;;;2.76;76.14
45467;BME280;31212;49.734;8.490;2023-03-04T09:31:30;101047.56;;;2.93;75.67
45467;BME280;31212;49.734;8.490;2023-03-04T09:33:58;101039.88;;;2.93;75.49
45467;BME280;31212;49.734;8.490;2023-03-04T09:36:26;101025.41;;;2.93;75.24
45467;BME280;31212;49.734;8.490;2023-03-04T09:38:52;101019.84;;;3.03;75.07
45467;BME280;31212;49.734;8.490;2023-03-04T09:41:21;101011.63;;;3.32;74.76
45467;BME280;31212;49.734;8.490;2023-03-04T09:43:50;100977.72;;;3.39;74.04
45467;BME280;31212;49.734;8.490;2023-03-04T09:46:22;100957.59;;;3.48;74.01
45467;BME280;31212;49.734;8.490;2023-03-04T09:48:54;100916.84;;;3.58;72.84
45467;BME280;31212;49.734;8.490;2023-03-04T09:51:22;100923.69;;;3.57;72.52
45467;BME280;31212;49.734;8.490;2023-03-04T09:54:04;100924.16;;;3.69;72.48
45467;BME280;31212;49.734;8.490;2023-03-04T09:56:33;100934.88;;;3.80;72.48
45467;BME280;31212;49.734;8.490;2023-03-04T09:59:08;100903.19;;;3.80;72.18
45467;BME280;31212;49.734;8.490;2023-03-04T10:01:42;100891.50;;;3.88;71.59
45467;BME280;31212;49.734;8.490;2023-03-04T10:04:13;100897.09;;;4.00;71.57
45467;BME280;31212;49.734;8.490;2023-03-04T10:06:43;100899.03;;;3.83;71.84
45467;BME280;31212;49.734;8.490;2023-03-04T10:09:15;100900.84;;;3.86;71.93
45467;BME280;31212;49.734;8.490;2023-03-04T10:11:44;100897.00;;;3.97;71.59
45467;BME280;31212;49.734;8.490;2023-03-04T10:14:29;100912.41;;;3.97;71.93
45467;BME280;31212;49.734;8.490;2023-03-04T10:16:59;100901.72;;;4.09;71.57
45467;BME280;31212;49.734;8.490;2023-03-04T10:19:39;100904.16;;;4.06;71.39
45467;BME280;31212;49.734;8.490;2023-03-04T10:22:16;100897.56;;;4.13;71.24
45467;BME280;31212;49.734;8.490;2023-03-04T10:24:46;100894.19;;;4.38;71.15
45467;BME280;31212;49.734;8.490;2023-03-04T10:27:16;100879.19;;;4.26;70.86
45467;BME280;31212;49.734;8.490;2023-03-04T10:29:44;100871.44;;;4.49;70.33
45467;BME280;31212;49.734;8.490;2023-03-04T10:32:11;100833.28;;;4.35;69.95
45467;BME280;31212;49.734;8.490;2023-03-04T10:34:39;100834.97;;;4.59;69.87
45467;BME280;31212;49.734;8.490;2023-03-04T10:37:06;100822.69;;;4.52;69.50
45467;BME280;31212;49.734;8.490;2023-03-04T10:39:35;100812.94;;;4.67;69.34
45467;BME280;31212;49.734;8.490;2023-03-04T10:42:05;100841.38;;;4.72;69.71
45467;BME280;31212;49.734;8.490;2023-03-04T10:44:33;100828.16;;;4.87;69.43
45467;BME280;31212;49.734;8.490;2023-03-04T10:47:08;100810.63;;;5.01;68.83
45467;BME280;31212;49.734;8.490;2023-03-04T10:49:49;100785.75;;;5.01;68.68
45467;BME280;31212;49.734;8.490;2023-03-04T10:52:24;100776.97;;;5.23;68.26
45467;BME280;31212;49.734;8.490;2023-03-04T10:54:53;100769.25;;;5.23;68.09
45467;BME280;31212;49.734;8.490;2023-03-04T10:57:24;100727.63;;;5.37;67.30
45467;BME280;31212;49.734;8.490;2023-03-04T10:59:55;100706.78;;;5.28;66.93
45467;BME280;31212;49.734;8.490;2023-03-04T11:02:23;100674.34;;;5.34;66.64
45467;BME280;31212;49.734;8.490;2023-03-04T11:04:58;100611.97;;;5.45;65.67
45467;BME280;31212;49.734;8.490;2023-03-04T11:07:30;100602.94;;;5.59;65.29
45467;BME280;31212;49.734;8.490;2023-03-04T11:10:06;100560.81;;;5.57;64.27
45467;BME280;31212;49.734;8.490;2023-03-04T11:12:34;100541.69;;;5.82;63.67
45467;BME280;31212;49.734;8.490;2023-03-04T11:15:02;100520.41;;;5.91;63.10
45467;BME280;31212;49.734;8.490;2023-03-04T11:17:40;100517.97;;;5.96;62.98
45467;BME280;31212;49.734;8.490;2023-03-04T11:20:13;100532.13;;;5.77;63.49
45467;BME280;31212;49.734;8.490;2023-03-04T11:22:44;100505.19;;;5.99;63.00
45467;BME280;31212;49.734;8.490;2023-03-04T11:25:20;100440.06;;;6.06;61.54
45467;BME280;31212;49.734;8.490;2023-03-04T11:27:52;100439.31;;;6.10;61.64
45467;BME280;31212;49.734;8.490;2023-03-04T11:30:37;100428.13;;;6.11;61.18
45467;BME280;31212;49.734;8.490;2023-03-04T11:33:13;100432.88;;;5.93;61.70
45467;BME280;31212;49.734;8.490;2023-03-04T11:35:49;100456.06;;;5.93;61.68
45467;BME280;31212;49.734;8.490;2023-03-04T11:38:21;100457.03;;;5.98;61.47
45467;BME280;31212;49.734;8.490;2023-03-04T11:40:53;100432.88;;;5.93;61.37
45467;BME280;31212;49.734;8.490;2023-03-04T11:43:26;100415.19;;;5.70;61.59
45467;BME280;31212;49.734;8.490;2023-03-04T11:46:13;100437.00;;;5.86;61.28
45467;BME280;31212;49.734;8.490;2023-03-04T11:48:51;100468.97;;;5.94;62.16
45467;BME280;31212;49.734;8.490;2023-03-04T11:51:23;100428.50;;;5.90;61.10
45467;BME280;31212;49.734;8.490;2023-03-04T11:54:07;100410.84;;;5.69;61.66
45467;BME280;31212;49.734;8.490;2023-03-04T11:56:41;100445.44;;;5.80;61.40
45467;BME280;31212;49.734;8.490;2023-03-04T11:59:42;100452.16;;;5.73;61.96
45467;BME280;31212;49.734;8.490;2023-03-04T12:02:12;100456.31;;;5.67;62.03
45467;BME280;31212;49.734;8.490;2023-03-04T12:08:13;100461.00;;;5.83;62.13
45467;BME280;31212;49.734;8.490;2023-03-04T12:10:48;100486.66;;;5.80;62.39
45467;BME280;31212;49.734;8.490;2023-03-04T12:13:33;100489.81;;;5.67;62.27
45467;BME280;31212;49.734;8.490;2023-03-04T12:16:20;100497.78;;;5.78;62.27
45467;BME280;31212;49.734;8.490;2023-03-04T12:19:04;100489.25;;;5.80;62.32
45467;BME280;31212;49.734;8.490;2023-03-04T12:21:49;100493.50;;;5.78;62.23
45467;BME280;31212;49.734;8.490;2023-03-04T12:24:46;100486.41;;;5.69;62.74
45467;BME280;31212;49.734;8.490;2023-03-04T12:27:23;100474.38;;;5.68;62.17
45467;BME280;31212;49.734;8.490;2023-03-04T12:29:57;100479.41;;;5.64;62.45
45467;BME280;31212;49.734;8.490;2023-03-04T12:32:33;100481.06;;;5.60;62.10
45467;BME280;31212;49.734;8.490;2023-03-04T12:35:30;100498.22;;;5.61;62.68
45467;BME280;31212;49.734;8.490;2023-03-04T12:38:18;100503.97;;;5.49;62.94
45467;BME280;31212;49.734;8.490;2023-03-04T12:40:56;100510.09;;;5.54;63.30
45467;BME280;31212;49.734;8.490;2023-03-04T12:43:29;100510.16;;;5.56;63.13
45467;BME280;31212;49.734;8.490;2023-03-04T12:46:05;100503.84;;;5.45;63.11
45467;BME280;31212;49.734;8.490;2023-03-04T12:48:39;100521.50;;;5.31;63.58
45467;BME280;31212;49.734;8.490;2023-03-04T12:51:15;100533.44;;;5.29;63.67
45467;BME280;31212;49.734;8.490;2023-03-04T12:53:53;100530.41;;;5.44;63.61
45467;BME280;31212;49.734;8.490;2023-03-04T12:56:24;100563.59;;;5.33;64.35
45467;BME280;31212;49.734;8.490;2023-03-04T12:58:52;100575.84;;;5.42;64.28
45467;BME280;31212;49.734;8.490;2023-03-04T13:01:23;100567.91;;;5.34;64.16
45467;BME280;31212;49.734;8.490;2023-03-04T13:03:58;100570.78;;;5.45;64.11
45467;BME280;31212;49.734;8.490;2023-03-04T13:06:33;100548.38;;;5.41;64.19
45467;BME280;31212;49.734;8.490;2023-03-04T13:09:04;100551.22;;;5.51;63.91